sensor_id;sensor_type;location;lat;lon;timestamp;P1;durP1;ratioP1;P2;durP2;ratioP2
4206;SDS011;2117;47.972;7.830;2022-11-15T02:32:40;3.40;;;1.30;;
4206;SDS011;2117;47.972;7.830;2022-11-15T02:38:09;2.53;;;1.27;;
4206;SDS011;2117;47.972;7.830;2022-11-15T02:41:27;2.00;;;1.33;;
4206;SDS011;2117;47.972;7.830;2022-11-15T02:44:02;1.93;;;1.40;;
4206;SDS011;2117;47.972;7.830;2022-11-15T02:48:57;2.80;;;1.47;;
4206;SDS011;2117;47.972;7.830;2022-11-15T02:51:22;4.50;;;1.43;;
4206;SDS011;2117;47.972;7.830;2022-11-15T02:53:48;2.43;;;1.20;;
4206;SDS011;2117;47.972;7.830;2022-11-15T02:56:14;4.00;;;2.13;;
4206;SDS011;2117;47.972;7.830;2022-11-15T03:06:51;2.00;;;1.17;;
4206;SDS011;2117;47.972;7.830;2022-11-15T03:09:37;2.43;;;1.63;;
4206;SDS011;2117;47.972;7.830;2022-11-15T03:12:15;1.83;;;1.30;;
4206;SDS011;2117;47.972;7.830;2022-11-15T03:15:00;2.57;;;1.53;;
4206;SDS011;2117;47.972;7.830;2022-11-15T03:20:37;2.80;;;1.20;;
4206;SDS011;2117;47.972;7.830;2022-11-15T03:23:08;2.30;;;1.13;;
4206;SDS011;2117;47.972;7.830;2022-11-15T03:25:36;2.40;;;1.40;;
4206;SDS011;2117;47.972;7.830;2022-11-15T03:28:06;2.73;;;1.33;;
4206;SDS011;2117;47.972;7.830;2022-11-15T03:30:37;5.90;;;1.30;;
4206;SDS011;2117;47.972;7.830;2022-11-15T03:33:04;1.80;;;1.10;;
4206;SDS011;2117;47.972;7.830;2022-11-15T03:35:35;2.47;;;1.30;;
4206;SDS011;2117;47.972;7.830;2022-11-15T03:40:42;2.53;;;1.37;;
4206;SDS011;2117;47.972;7.830;2022-11-15T03:43:16;2.80;;;1.30;;
4206;SDS011;2117;47.972;7.830;2022-11-15T03:46:19;2.17;;;1.43;;
4206;SDS011;2117;47.972;7.830;2022-11-15T03:48:54;2.80;;;1.03;;
4206;SDS011;2117;47.972;7.830;2022-11-15T03:51:25;2.17;;;1.50;;
4206;SDS011;2117;47.972;7.830;2022-11-15T03:53:51;4.40;;;1.80;;
4206;SDS011;2117;47.972;7.830;2022-11-15T03:56:17;4.10;;;2.27;;
4206;SDS011;2117;47.972;7.830;2022-11-15T03:58:42;4.57;;;2.30;;
4206;SDS011;2117;47.972;7.830;2022-11-15T04:01:08;3.90;;;2.73;;
4206;SDS011;2117;47.972;7.830;2022-11-15T04:03:33;3.20;;;2.13;;
4206;SDS011;2117;47.972;7.830;2022-11-15T04:05:59;3.60;;;2.33;;
4206;SDS011;2117;47.972;7.830;2022-11-15T04:08:24;3.23;;;2.40;;
4206;SDS011;2117;47.972;7.830;2022-11-15T04:10:50;3.83;;;2.60;;
4206;SDS011;2117;47.972;7.830;2022-11-15T04:13:16;5.00;;;2.17;;
4206;SDS011;2117;47.972;7.830;2022-11-15T04:15:41;3.60;;;2.33;;
4206;SDS011;2117;47.972;7.830;2022-11-15T04:18:07;4.80;;;2.83;;
4206;SDS011;2117;47.972;7.830;2022-11-15T04:20:32;4.57;;;2.83;;
4206;SDS011;2117;47.972;7.830;2022-11-15T04:23:17;5.13;;;3.10;;
4206;SDS011;2117;47.972;7.830;2022-11-15T04:26:07;3.77;;;2.87;;
4206;SDS011;2117;47.972;7.830;2022-11-15T04:28:36;4.57;;;3.03;;
4206;SDS011;2117;47.972;7.830;2022-11-15T04:31:24;5.13;;;3.40;;
4206;SDS011;2117;47.972;7.830;2022-11-15T04:33:50;8.20;;;2.83;;
4206;SDS011;2117;47.972;7.830;2022-11-15T04:36:16;5.00;;;3.30;;
4206;SDS011;2117;47.972;7.830;2022-11-15T04:39:00;4.03;;;3.20;;
4206;SDS011;2117;47.972;7.830;2022-11-15T04:41:26;5.03;;;3.37;;
4206;SDS011;2117;47.972;7.830;2022-11-15T04:43:51;7.77;;;3.40;;
4206;SDS011;2117;47.972;7.830;2022-11-15T04:46:17;4.30;;;3.10;;
4206;SDS011;2117;47.972;7.830;2022-11-15T04:48:42;4.70;;;2.60;;
4206;SDS011;2117;47.972;7.830;2022-11-15T04:51:08;5.20;;;3.47;;
4206;SDS011;2117;47.972;7.830;2022-11-15T04:53:33;6.17;;;3.33;;
4206;SDS011;2117;47.972;7.830;2022-11-15T04:55:59;6.63;;;2.90;;
4206;SDS011;2117;47.972;7.830;2022-11-15T04:58:24;3.50;;;2.80;;
4206;SDS011;2117;47.972;7.830;2022-11-15T05:00:50;12.47;;;3.30;;
4206;SDS011;2117;47.972;7.830;2022-11-15T05:03:16;7.10;;;3.67;;
4206;SDS011;2117;47.972;7.830;2022-11-15T05:06:00;4.37;;;3.23;;
4206;SDS011;2117;47.972;7.830;2022-11-15T05:08:26;5.87;;;4.37;;
4206;SDS011;2117;47.972;7.830;2022-11-15T05:10:51;7.63;;;3.50;;
4206;SDS011;2117;47.972;7.830;2022-11-15T05:13:17;5.20;;;3.43;;
4206;SDS011;2117;47.972;7.830;2022-11-15T05:15:43;12.83;;;3.90;;
4206;SDS011;2117;47.972;7.830;2022-11-15T05:18:08;7.67;;;3.53;;
4206;SDS011;2117;47.972;7.830;2022-11-15T05:20:34;4.50;;;3.00;;
4206;SDS011;2117;47.972;7.830;2022-11-15T05:22:59;5.07;;;2.47;;
4206;SDS011;2117;47.972;7.830;2022-11-15T05:25:25;6.83;;;3.23;;
4206;SDS011;2117;47.972;7.830;2022-11-15T05:27:51;3.90;;;3.03;;
4206;SDS011;2117;47.972;7.830;2022-11-15T05:30:17;5.67;;;3.30;;
4206;SDS011;2117;47.972;7.830;2022-11-15T05:32:43;7.27;;;2.60;;
4206;SDS011;2117;47.972;7.830;2022-11-15T05:35:21;4.87;;;3.03;;
4206;SDS011;2117;47.972;7.830;2022-11-15T05:37:54;9.43;;;3.10;;
4206;SDS011;2117;47.972;7.830;2022-11-15T05:40:20;5.60;;;3.50;;
4206;SDS011;2117;47.972;7.830;2022-11-15T05:42:46;5.20;;;3.93;;
4206;SDS011;2117;47.972;7.830;2022-11-15T05:45:12;4.10;;;2.50;;
4206;SDS011;2117;47.972;7.830;2022-11-15T05:47:38;6.90;;;3.33;;
4206;SDS011;2117;47.972;7.830;2022-11-15T05:50:04;5.03;;;3.70;;
4206;SDS011;2117;47.972;7.830;2022-11-15T05:52:31;4.03;;;3.10;;
4206;SDS011;2117;47.972;7.830;2022-11-15T05:54:59;4.60;;;3.23;;
4206;SDS011;2117;47.972;7.830;2022-11-15T05:57:26;5.00;;;3.03;;
4206;SDS011;2117;47.972;7.830;2022-11-15T05:59:52;5.00;;;2.63;;
4206;SDS011;2117;47.972;7.830;2022-11-15T06:02:19;4.40;;;3.30;;
4206;SDS011;2117;47.972;7.830;2022-11-15T06:04:44;5.07;;;3.00;;
4206;SDS011;2117;47.972;7.830;2022-11-15T06:07:10;8.33;;;4.70;;
4206;SDS011;2117;47.972;7.830;2022-11-15T06:09:35;11.27;;;5.70;;
4206;SDS011;2117;47.972;7.830;2022-11-15T06:12:01;8.27;;;5.30;;
4206;SDS011;2117;47.972;7.830;2022-11-15T06:14:26;10.33;;;4.30;;
4206;SDS011;2117;47.972;7.830;2022-11-15T06:16:52;7.87;;;5.00;;
4206;SDS011;2117;47.972;7.830;2022-11-15T06:19:17;9.23;;;4.57;;
4206;SDS011;2117;47.972;7.830;2022-11-15T06:21:43;6.47;;;4.10;;
4206;SDS011;2117;47.972;7.830;2022-11-15T06:24:08;7.37;;;4.60;;
4206;SDS011;2117;47.972;7.830;2022-11-15T06:26:34;20.83;;;9.20;;
4206;SDS011;2117;47.972;7.830;2022-11-15T06:28:59;14.80;;;8.37;;
4206;SDS011;2117;47.972;7.830;2022-11-15T06:31:27;12.03;;;7.60;;
4206;SDS011;2117;47.972;7.830;2022-11-15T06:33:52;11.47;;;6.37;;
4206;SDS011;2117;47.972;7.830;2022-11-15T06:36:18;10.13;;;5.80;;
4206;SDS011;2117;47.972;7.830;2022-11-15T06:38:44;17.27;;;8.67;;
4206;SDS011;2117;47.972;7.830;2022-11-15T06:41:10;17.13;;;9.50;;
4206;SDS011;2117;47.972;7.830;2022-11-15T06:43:37;11.17;;;6.33;;
4206;SDS011;2117;47.972;7.830;2022-11-15T06:46:03;6.17;;;4.53;;
4206;SDS011;2117;47.972;7.830;2022-11-15T06:48:30;6.83;;;3.87;;
4206;SDS011;2117;47.972;7.830;2022-11-15T06:50:57;7.07;;;4.13;;
4206;SDS011;2117;47.972;7.830;2022-11-15T06:53:24;8.07;;;4.40;;
4206;SDS011;2117;47.972;7.830;2022-11-15T06:55:50;10.37;;;4.10;;
4206;SDS011;2117;47.972;7.830;2022-11-15T06:58:16;9.07;;;5.40;;
4206;SDS011;2117;47.972;7.830;2022-11-15T07:00:42;11.47;;;6.60;;
4206;SDS011;2117;47.972;7.830;2022-11-15T07:03:08;8.40;;;5.87;;
4206;SDS011;2117;47.972;7.830;2022-11-15T07:05:34;8.27;;;4.73;;
4206;SDS011;2117;47.972;7.830;2022-11-15T07:08:00;9.40;;;5.30;;
4206;SDS011;2117;47.972;7.830;2022-11-15T07:10:26;12.03;;;5.13;;
4206;SDS011;2117;47.972;7.830;2022-11-15T07:12:52;9.13;;;4.33;;
4206;SDS011;2117;47.972;7.830;2022-11-15T07:15:19;7.93;;;5.03;;
4206;SDS011;2117;47.972;7.830;2022-11-15T07:17:48;6.80;;;4.43;;
4206;SDS011;2117;47.972;7.830;2022-11-15T07:20:13;7.10;;;4.67;;
4206;SDS011;2117;47.972;7.830;2022-11-15T07:22:40;11.07;;;4.77;;
4206;SDS011;2117;47.972;7.830;2022-11-15T07:25:06;5.77;;;3.87;;
4206;SDS011;2117;47.972;7.830;2022-11-15T07:27:32;5.73;;;3.23;;
4206;SDS011;2117;47.972;7.830;2022-11-15T07:29:58;4.20;;;3.47;;
4206;SDS011;2117;47.972;7.830;2022-11-15T07:32:24;5.93;;;3.60;;
4206;SDS011;2117;47.972;7.830;2022-11-15T07:34:49;7.50;;;4.30;;
4206;SDS011;2117;47.972;7.830;2022-11-15T07:37:15;8.93;;;4.70;;
4206;SDS011;2117;47.972;7.830;2022-11-15T07:39:41;9.43;;;6.40;;
4206;SDS011;2117;47.972;7.830;2022-11-15T07:42:07;12.40;;;5.90;;
4206;SDS011;2117;47.972;7.830;2022-11-15T07:44:52;7.17;;;4.73;;
4206;SDS011;2117;47.972;7.830;2022-11-15T07:47:17;9.27;;;4.73;;
4206;SDS011;2117;47.972;7.830;2022-11-15T07:49:43;9.90;;;4.37;;
4206;SDS011;2117;47.972;7.830;2022-11-15T07:52:08;10.53;;;4.53;;
4206;SDS011;2117;47.972;7.830;2022-11-15T07:54:34;9.67;;;4.43;;
4206;SDS011;2117;47.972;7.830;2022-11-15T07:56:59;10.90;;;4.70;;
4206;SDS011;2117;47.972;7.830;2022-11-15T07:59:25;7.40;;;4.57;;
4206;SDS011;2117;47.972;7.830;2022-11-15T08:01:50;9.60;;;5.87;;
4206;SDS011;2117;47.972;7.830;2022-11-15T08:04:16;10.73;;;6.10;;
4206;SDS011;2117;47.972;7.830;2022-11-15T08:06:42;12.60;;;5.57;;
4206;SDS011;2117;47.972;7.830;2022-11-15T08:09:07;8.20;;;6.30;;
4206;SDS011;2117;47.972;7.830;2022-11-15T08:11:33;10.67;;;6.07;;
4206;SDS011;2117;47.972;7.830;2022-11-15T08:13:58;9.73;;;6.30;;
4206;SDS011;2117;47.972;7.830;2022-11-15T08:16:24;14.13;;;7.43;;
4206;SDS011;2117;47.972;7.830;2022-11-15T08:18:49;11.63;;;6.73;;
4206;SDS011;2117;47.972;7.830;2022-11-15T08:21:17;13.80;;;6.77;;
4206;SDS011;2117;47.972;7.830;2022-11-15T08:23:44;12.97;;;6.63;;
4206;SDS011;2117;47.972;7.830;2022-11-15T08:26:10;13.63;;;5.97;;
4206;SDS011;2117;47.972;7.830;2022-11-15T08:28:35;10.33;;;5.60;;
4206;SDS011;2117;47.972;7.830;2022-11-15T08:31:01;8.40;;;4.77;;
4206;SDS011;2117;47.972;7.830;2022-11-15T08:33:27;11.03;;;3.97;;
4206;SDS011;2117;47.972;7.830;2022-11-15T08:35:55;11.10;;;5.83;;
4206;SDS011;2117;47.972;7.830;2022-11-15T08:38:22;8.33;;;4.07;;
4206;SDS011;2117;47.972;7.830;2022-11-15T08:40:48;8.80;;;4.27;;
4206;SDS011;2117;47.972;7.830;2022-11-15T08:43:15;9.00;;;3.77;;
4206;SDS011;2117;47.972;7.830;2022-11-15T08:45:40;7.43;;;5.03;;
4206;SDS011;2117;47.972;7.830;2022-11-15T08:48:06;8.67;;;5.50;;
4206;SDS011;2117;47.972;7.830;2022-11-15T08:50:31;9.00;;;5.10;;
4206;SDS011;2117;47.972;7.830;2022-11-15T08:52:57;6.23;;;4.57;;
4206;SDS011;2117;47.972;7.830;2022-11-15T08:55:28;6.07;;;4.30;;
4206;SDS011;2117;47.972;7.830;2022-11-15T08:57:56;4.63;;;3.60;;
4206;SDS011;2117;47.972;7.830;2022-11-15T09:00:22;4.40;;;3.33;;
4206;SDS011;2117;47.972;7.830;2022-11-15T09:02:48;4.97;;;3.10;;
4206;SDS011;2117;47.972;7.830;2022-11-15T09:05:14;5.00;;;3.40;;
4206;SDS011;2117;47.972;7.830;2022-11-15T09:07:43;5.77;;;4.10;;
4206;SDS011;2117;47.972;7.830;2022-11-15T09:10:09;5.73;;;4.20;;
4206;SDS011;2117;47.972;7.830;2022-11-15T09:12:34;6.43;;;4.77;;
4206;SDS011;2117;47.972;7.830;2022-11-15T09:15:00;7.53;;;4.70;;
4206;SDS011;2117;47.972;7.830;2022-11-15T09:17:26;9.40;;;5.77;;
4206;SDS011;2117;47.972;7.830;2022-11-15T09:19:51;9.83;;;6.40;;
4206;SDS011;2117;47.972;7.830;2022-11-15T09:22:17;9.10;;;6.10;;
4206;SDS011;2117;47.972;7.830;2022-11-15T09:24:43;15.07;;;5.80;;
4206;SDS011;2117;47.972;7.830;2022-11-15T09:27:08;8.00;;;6.53;;
4206;SDS011;2117;47.972;7.830;2022-11-15T09:29:34;11.00;;;5.80;;
4206;SDS011;2117;47.972;7.830;2022-11-15T09:32:00;8.47;;;6.70;;
4206;SDS011;2117;47.972;7.830;2022-11-15T09:34:25;8.07;;;6.53;;
4206;SDS011;2117;47.972;7.830;2022-11-15T09:36:51;8.00;;;5.93;;
4206;SDS011;2117;47.972;7.830;2022-11-15T09:39:16;9.57;;;5.70;;
4206;SDS011;2117;47.972;7.830;2022-11-15T09:41:55;8.87;;;5.93;;
4206;SDS011;2117;47.972;7.830;2022-11-15T09:49:57;13.77;;;7.50;;
4206;SDS011;2117;47.972;7.830;2022-11-15T09:52:26;14.77;;;7.50;;
4206;SDS011;2117;47.972;7.830;2022-11-15T09:54:52;14.87;;;7.40;;
4206;SDS011;2117;47.972;7.830;2022-11-15T09:57:21;11.90;;;7.40;;
4206;SDS011;2117;47.972;7.830;2022-11-15T10:00:40;8.80;;;6.10;;
4206;SDS011;2117;47.972;7.830;2022-11-15T10:05:22;10.37;;;6.30;;
4206;SDS011;2117;47.972;7.830;2022-11-15T10:08:02;20.13;;;6.93;;
4206;SDS011;2117;47.972;7.830;2022-11-15T10:13:20;14.20;;;5.77;;
4206;SDS011;2117;47.972;7.830;2022-11-15T10:15:50;14.20;;;6.30;;
4206;SDS011;2117;47.972;7.830;2022-11-15T10:18:24;15.47;;;6.17;;
4206;SDS011;2117;47.972;7.830;2022-11-15T10:21:02;8.50;;;5.70;;
4206;SDS011;2117;47.972;7.830;2022-11-15T10:24:11;10.33;;;5.90;;
4206;SDS011;2117;47.972;7.830;2022-11-15T10:26:38;13.20;;;7.47;;
4206;SDS011;2117;47.972;7.830;2022-11-15T10:29:10;16.90;;;7.70;;
4206;SDS011;2117;47.972;7.830;2022-11-15T10:31:37;22.13;;;10.73;;
4206;SDS011;2117;47.972;7.830;2022-11-15T10:34:12;18.27;;;8.97;;
4206;SDS011;2117;47.972;7.830;2022-11-15T10:36:57;10.87;;;7.03;;
4206;SDS011;2117;47.972;7.830;2022-11-15T10:39:25;15.50;;;7.53;;
4206;SDS011;2117;47.972;7.830;2022-11-15T10:41:51;19.47;;;9.93;;
4206;SDS011;2117;47.972;7.830;2022-11-15T10:46:46;17.43;;;10.90;;
4206;SDS011;2117;47.972;7.830;2022-11-15T10:49:24;20.53;;;10.60;;
4206;SDS011;2117;47.972;7.830;2022-11-15T10:57:16;14.67;;;7.63;;
4206;SDS011;2117;47.972;7.830;2022-11-15T11:00:04;14.83;;;7.50;;
4206;SDS011;2117;47.972;7.830;2022-11-15T11:02:55;13.87;;;8.40;;
4206;SDS011;2117;47.972;7.830;2022-11-15T11:05:26;12.13;;;7.27;;
4206;SDS011;2117;47.972;7.830;2022-11-15T11:08:01;11.83;;;7.63;;
4206;SDS011;2117;47.972;7.830;2022-11-15T11:10:27;12.67;;;7.60;;
4206;SDS011;2117;47.972;7.830;2022-11-15T11:12:53;8.87;;;6.03;;
4206;SDS011;2117;47.972;7.830;2022-11-15T11:15:19;10.73;;;6.10;;
4206;SDS011;2117;47.972;7.830;2022-11-15T11:17:57;13.60;;;7.17;;
4206;SDS011;2117;47.972;7.830;2022-11-15T11:34:29;12.87;;;7.37;;
4206;SDS011;2117;47.972;7.830;2022-11-15T11:48:14;19.00;;;10.00;;
4206;SDS011;2117;47.972;7.830;2022-11-15T11:51:03;15.50;;;9.00;;
4206;SDS011;2117;47.972;7.830;2022-11-15T11:53:39;13.13;;;8.57;;
4206;SDS011;2117;47.972;7.830;2022-11-15T11:59:00;17.77;;;8.27;;
4206;SDS011;2117;47.972;7.830;2022-11-15T12:01:44;13.73;;;7.10;;
4206;SDS011;2117;47.972;7.830;2022-11-15T12:06:57;5.97;;;4.73;;
4206;SDS011;2117;47.972;7.830;2022-11-15T12:09:34;6.37;;;4.80;;
4206;SDS011;2117;47.972;7.830;2022-11-15T12:12:21;7.67;;;4.23;;
4206;SDS011;2117;47.972;7.830;2022-11-15T12:15:02;7.70;;;4.37;;
4206;SDS011;2117;47.972;7.830;2022-11-15T12:17:34;6.07;;;3.80;;
4206;SDS011;2117;47.972;7.830;2022-11-15T12:20:06;13.07;;;6.80;;
4206;SDS011;2117;47.972;7.830;2022-11-15T12:22:52;13.47;;;7.03;;
4206;SDS011;2117;47.972;7.830;2022-11-15T12:31:05;11.90;;;6.33;;
4206;SDS011;2117;47.972;7.830;2022-11-15T12:33:46;10.17;;;6.30;;
4206;SDS011;2117;47.972;7.830;2022-11-15T12:41:31;7.30;;;5.20;;
4206;SDS011;2117;47.972;7.830;2022-11-15T12:43:58;15.70;;;6.10;;
4206;SDS011;2117;47.972;7.830;2022-11-15T12:49:02;8.50;;;6.27;;
4206;SDS011;2117;47.972;7.830;2022-11-15T13:04:53;11.30;;;7.30;;
4206;SDS011;2117;47.972;7.830;2022-11-15T13:17:38;15.40;;;8.03;;
4206;SDS011;2117;47.972;7.830;2022-11-15T13:22:40;14.10;;;5.83;;
4206;SDS011;2117;47.972;7.830;2022-11-15T13:33:20;8.17;;;5.80;;
4206;SDS011;2117;47.972;7.830;2022-11-15T13:35:57;7.03;;;4.93;;
4206;SDS011;2117;47.972;7.830;2022-11-15T13:38:27;8.70;;;4.47;;
4206;SDS011;2117;47.972;7.830;2022-11-15T13:40:55;6.37;;;3.40;;
4206;SDS011;2117;47.972;7.830;2022-11-15T13:46:06;5.70;;;3.90;;
4206;SDS011;2117;47.972;7.830;2022-11-15T13:48:37;4.37;;;3.67;;
4206;SDS011;2117;47.972;7.830;2022-11-15T13:51:05;10.63;;;4.80;;
4206;SDS011;2117;47.972;7.830;2022-11-15T13:53:35;9.77;;;6.40;;
4206;SDS011;2117;47.972;7.830;2022-11-15T13:56:05;8.00;;;5.23;;
4206;SDS011;2117;47.972;7.830;2022-11-15T13:58:31;11.50;;;6.83;;
4206;SDS011;2117;47.972;7.830;2022-11-15T14:01:01;8.00;;;4.80;;
4206;SDS011;2117;47.972;7.830;2022-11-15T14:03:30;11.83;;;7.47;;
4206;SDS011;2117;47.972;7.830;2022-11-15T14:09:29;7.63;;;3.70;;
4206;SDS011;2117;47.972;7.830;2022-11-15T14:11:32;6.40;;;4.13;;
4206;SDS011;2117;47.972;7.830;2022-11-15T14:19:03;5.87;;;4.10;;
4206;SDS011;2117;47.972;7.830;2022-11-15T14:21:30;7.47;;;4.73;;
4206;SDS011;2117;47.972;7.830;2022-11-15T14:26:41;11.50;;;6.33;;
4206;SDS011;2117;47.972;7.830;2022-11-15T14:31:48;8.30;;;5.43;;
4206;SDS011;2117;47.972;7.830;2022-11-15T14:34:14;9.70;;;6.60;;
4206;SDS011;2117;47.972;7.830;2022-11-15T14:36:39;16.20;;;8.13;;
4206;SDS011;2117;47.972;7.830;2022-11-15T14:39:05;12.10;;;8.40;;
4206;SDS011;2117;47.972;7.830;2022-11-15T14:41:33;11.53;;;8.60;;
4206;SDS011;2117;47.972;7.830;2022-11-15T14:44:02;10.73;;;8.27;;
4206;SDS011;2117;47.972;7.830;2022-11-15T14:46:29;19.83;;;9.03;;
4206;SDS011;2117;47.972;7.830;2022-11-15T14:48:54;11.40;;;8.10;;
4206;SDS011;2117;47.972;7.830;2022-11-15T14:51:20;10.03;;;7.43;;
4206;SDS011;2117;47.972;7.830;2022-11-15T14:53:46;11.87;;;8.00;;
4206;SDS011;2117;47.972;7.830;2022-11-15T14:56:12;11.40;;;8.33;;
4206;SDS011;2117;47.972;7.830;2022-11-15T14:58:38;11.17;;;9.23;;
4206;SDS011;2117;47.972;7.830;2022-11-15T15:01:12;11.70;;;8.47;;
4206;SDS011;2117;47.972;7.830;2022-11-15T15:03:42;12.87;;;8.50;;
4206;SDS011;2117;47.972;7.830;2022-11-15T15:06:09;12.27;;;8.17;;
4206;SDS011;2117;47.972;7.830;2022-11-15T15:08:34;12.23;;;9.90;;
4206;SDS011;2117;47.972;7.830;2022-11-15T15:11:00;14.57;;;9.70;;
4206;SDS011;2117;47.972;7.830;2022-11-15T15:13:26;14.27;;;8.93;;
4206;SDS011;2117;47.972;7.830;2022-11-15T15:15:53;10.70;;;9.40;;
4206;SDS011;2117;47.972;7.830;2022-11-15T15:18:19;11.80;;;9.50;;
4206;SDS011;2117;47.972;7.830;2022-11-15T15:20:53;14.20;;;9.20;;
4206;SDS011;2117;47.972;7.830;2022-11-15T15:23:32;12.27;;;9.43;;
4206;SDS011;2117;47.972;7.830;2022-11-15T15:25:58;12.40;;;8.63;;
4206;SDS011;2117;47.972;7.830;2022-11-15T15:28:24;13.13;;;8.47;;
4206;SDS011;2117;47.972;7.830;2022-11-15T15:30:49;10.03;;;7.83;;
4206;SDS011;2117;47.972;7.830;2022-11-15T15:33:15;11.37;;;7.93;;
4206;SDS011;2117;47.972;7.830;2022-11-15T15:35:41;11.90;;;7.47;;
4206;SDS011;2117;47.972;7.830;2022-11-15T15:38:13;10.70;;;8.43;;
4206;SDS011;2117;47.972;7.830;2022-11-15T15:40:40;12.97;;;8.67;;
4206;SDS011;2117;47.972;7.830;2022-11-15T15:43:05;13.53;;;9.83;;
4206;SDS011;2117;47.972;7.830;2022-11-15T15:45:34;12.53;;;8.87;;
4206;SDS011;2117;47.972;7.830;2022-11-15T15:48:02;11.43;;;7.73;;
4206;SDS011;2117;47.972;7.830;2022-11-15T15:50:28;11.63;;;8.50;;
4206;SDS011;2117;47.972;7.830;2022-11-15T15:52:57;14.97;;;9.57;;
4206;SDS011;2117;47.972;7.830;2022-11-15T15:55:25;17.10;;;10.00;;
4206;SDS011;2117;47.972;7.830;2022-11-15T15:57:52;14.83;;;10.10;;
4206;SDS011;2117;47.972;7.830;2022-11-15T16:00:18;19.50;;;11.93;;
4206;SDS011;2117;47.972;7.830;2022-11-15T16:02:44;14.20;;;9.37;;
4206;SDS011;2117;47.972;7.830;2022-11-15T16:05:10;12.83;;;9.70;;
4206;SDS011;2117;47.972;7.830;2022-11-15T16:07:36;11.33;;;8.40;;
4206;SDS011;2117;47.972;7.830;2022-11-15T16:10:14;14.43;;;10.60;;
4206;SDS011;2117;47.972;7.830;2022-11-15T16:12:46;14.23;;;10.10;;
4206;SDS011;2117;47.972;7.830;2022-11-15T16:15:13;14.40;;;9.20;;
4206;SDS011;2117;47.972;7.830;2022-11-15T16:17:47;11.40;;;9.43;;
4206;SDS011;2117;47.972;7.830;2022-11-15T16:23:06;13.37;;;9.30;;
4206;SDS011;2117;47.972;7.830;2022-11-15T16:25:34;10.70;;;8.90;;
4206;SDS011;2117;47.972;7.830;2022-11-15T16:28:20;17.50;;;10.27;;
4206;SDS011;2117;47.972;7.830;2022-11-15T16:30:58;10.60;;;8.70;;
4206;SDS011;2117;47.972;7.830;2022-11-15T16:33:28;15.43;;;10.63;;
4206;SDS011;2117;47.972;7.830;2022-11-15T16:35:54;14.63;;;10.30;;
4206;SDS011;2117;47.972;7.830;2022-11-15T16:38:19;18.37;;;10.13;;
4206;SDS011;2117;47.972;7.830;2022-11-15T16:40:45;14.70;;;9.83;;
4206;SDS011;2117;47.972;7.830;2022-11-15T16:43:11;15.83;;;11.67;;
4206;SDS011;2117;47.972;7.830;2022-11-15T16:45:36;16.70;;;12.17;;
4206;SDS011;2117;47.972;7.830;2022-11-15T16:48:02;19.57;;;13.00;;
4206;SDS011;2117;47.972;7.830;2022-11-15T16:50:30;17.00;;;12.73;;
4206;SDS011;2117;47.972;7.830;2022-11-15T16:52:59;21.03;;;13.77;;
4206;SDS011;2117;47.972;7.830;2022-11-15T16:55:26;20.13;;;14.30;;
4206;SDS011;2117;47.972;7.830;2022-11-15T16:57:53;10.50;;;8.70;;
4206;SDS011;2117;47.972;7.830;2022-11-15T17:00:21;19.63;;;11.90;;
4206;SDS011;2117;47.972;7.830;2022-11-15T17:02:48;17.07;;;13.23;;
4206;SDS011;2117;47.972;7.830;2022-11-15T17:05:15;23.50;;;12.70;;
4206;SDS011;2117;47.972;7.830;2022-11-15T17:07:42;13.17;;;10.87;;
4206;SDS011;2117;47.972;7.830;2022-11-15T17:10:10;15.63;;;11.00;;
4206;SDS011;2117;47.972;7.830;2022-11-15T17:12:36;22.13;;;11.67;;
4206;SDS011;2117;47.972;7.830;2022-11-15T17:15:02;14.97;;;10.17;;
4206;SDS011;2117;47.972;7.830;2022-11-15T17:17:29;13.63;;;9.70;;
4206;SDS011;2117;47.972;7.830;2022-11-15T17:19:55;13.67;;;9.60;;
4206;SDS011;2117;47.972;7.830;2022-11-15T17:22:21;10.70;;;8.47;;
4206;SDS011;2117;47.972;7.830;2022-11-15T17:24:47;16.13;;;9.40;;
4206;SDS011;2117;47.972;7.830;2022-11-15T17:27:12;12.60;;;8.90;;
4206;SDS011;2117;47.972;7.830;2022-11-15T17:29:39;14.73;;;10.60;;
4206;SDS011;2117;47.972;7.830;2022-11-15T17:32:05;12.50;;;8.87;;
4206;SDS011;2117;47.972;7.830;2022-11-15T17:34:31;11.50;;;8.73;;
4206;SDS011;2117;47.972;7.830;2022-11-15T17:36:57;13.17;;;9.60;;
4206;SDS011;2117;47.972;7.830;2022-11-15T17:39:22;12.27;;;8.93;;
4206;SDS011;2117;47.972;7.830;2022-11-15T17:41:48;13.33;;;9.30;;
4206;SDS011;2117;47.972;7.830;2022-11-15T17:44:14;13.80;;;9.20;;
4206;SDS011;2117;47.972;7.830;2022-11-15T17:46:40;10.83;;;8.57;;
4206;SDS011;2117;47.972;7.830;2022-11-15T17:49:05;15.70;;;10.40;;
4206;SDS011;2117;47.972;7.830;2022-11-15T17:51:31;25.43;;;13.80;;
4206;SDS011;2117;47.972;7.830;2022-11-15T17:53:57;17.50;;;12.47;;
4206;SDS011;2117;47.972;7.830;2022-11-15T17:56:23;23.03;;;14.37;;
4206;SDS011;2117;47.972;7.830;2022-11-15T17:58:51;21.57;;;15.87;;
4206;SDS011;2117;47.972;7.830;2022-11-15T18:03:46;32.30;;;18.23;;
4206;SDS011;2117;47.972;7.830;2022-11-15T18:06:12;29.27;;;17.60;;
4206;SDS011;2117;47.972;7.830;2022-11-15T18:08:39;39.27;;;23.60;;
4206;SDS011;2117;47.972;7.830;2022-11-15T18:13:47;34.77;;;21.10;;
4206;SDS011;2117;47.972;7.830;2022-11-15T18:16:17;31.87;;;21.23;;
4206;SDS011;2117;47.972;7.830;2022-11-15T18:18:43;32.13;;;19.17;;
4206;SDS011;2117;47.972;7.830;2022-11-15T18:23:36;25.07;;;18.03;;
4206;SDS011;2117;47.972;7.830;2022-11-15T18:26:03;25.70;;;17.50;;
4206;SDS011;2117;47.972;7.830;2022-11-15T18:28:31;23.77;;;15.27;;
4206;SDS011;2117;47.972;7.830;2022-11-15T18:30:58;22.17;;;15.30;;
4206;SDS011;2117;47.972;7.830;2022-11-15T18:33:25;22.07;;;16.57;;
4206;SDS011;2117;47.972;7.830;2022-11-15T18:35:58;34.43;;;20.53;;
4206;SDS011;2117;47.972;7.830;2022-11-15T18:38:25;32.80;;;21.90;;
4206;SDS011;2117;47.972;7.830;2022-11-15T18:40:54;39.03;;;23.30;;
4206;SDS011;2117;47.972;7.830;2022-11-15T18:43:34;33.47;;;23.03;;
4206;SDS011;2117;47.972;7.830;2022-11-15T18:46:01;31.60;;;21.43;;
4206;SDS011;2117;47.972;7.830;2022-11-15T18:48:32;27.03;;;19.30;;
4206;SDS011;2117;47.972;7.830;2022-11-15T18:51:04;25.13;;;17.77;;
4206;SDS011;2117;47.972;7.830;2022-11-15T18:53:31;23.70;;;16.63;;
4206;SDS011;2117;47.972;7.830;2022-11-15T18:56:04;20.07;;;15.70;;
4206;SDS011;2117;47.972;7.830;2022-11-15T18:58:32;17.73;;;14.80;;
4206;SDS011;2117;47.972;7.830;2022-11-15T19:01:06;18.80;;;14.40;;
4206;SDS011;2117;47.972;7.830;2022-11-15T19:03:33;24.63;;;15.50;;
4206;SDS011;2117;47.972;7.830;2022-11-15T19:08:29;23.57;;;18.00;;
4206;SDS011;2117;47.972;7.830;2022-11-15T19:10:55;20.13;;;15.80;;
4206;SDS011;2117;47.972;7.830;2022-11-15T19:13:20;17.70;;;13.43;;
4206;SDS011;2117;47.972;7.830;2022-11-15T19:15:46;18.93;;;13.90;;
4206;SDS011;2117;47.972;7.830;2022-11-15T19:18:11;21.03;;;13.43;;
4206;SDS011;2117;47.972;7.830;2022-11-15T19:20:38;23.70;;;13.67;;
4206;SDS011;2117;47.972;7.830;2022-11-15T19:23:03;19.50;;;13.17;;
4206;SDS011;2117;47.972;7.830;2022-11-15T19:25:29;19.83;;;12.13;;
4206;SDS011;2117;47.972;7.830;2022-11-15T19:27:54;16.70;;;12.70;;
4206;SDS011;2117;47.972;7.830;2022-11-15T19:30:20;16.43;;;12.80;;
4206;SDS011;2117;47.972;7.830;2022-11-15T19:32:45;16.20;;;11.77;;
4206;SDS011;2117;47.972;7.830;2022-11-15T19:35:11;14.40;;;10.67;;
4206;SDS011;2117;47.972;7.830;2022-11-15T19:37:37;32.93;;;20.77;;
4206;SDS011;2117;47.972;7.830;2022-11-15T19:40:02;38.90;;;21.17;;
4206;SDS011;2117;47.972;7.830;2022-11-15T19:42:29;29.87;;;18.00;;
4206;SDS011;2117;47.972;7.830;2022-11-15T19:44:54;22.13;;;16.53;;
4206;SDS011;2117;47.972;7.830;2022-11-15T19:47:20;20.93;;;12.90;;
4206;SDS011;2117;47.972;7.830;2022-11-15T19:49:45;20.30;;;13.27;;
4206;SDS011;2117;47.972;7.830;2022-11-15T19:52:11;14.07;;;10.83;;
4206;SDS011;2117;47.972;7.830;2022-11-15T19:54:36;17.60;;;10.57;;
4206;SDS011;2117;47.972;7.830;2022-11-15T19:57:02;15.27;;;10.37;;
4206;SDS011;2117;47.972;7.830;2022-11-15T19:59:27;13.10;;;11.37;;
4206;SDS011;2117;47.972;7.830;2022-11-15T20:01:53;13.90;;;10.43;;
4206;SDS011;2117;47.972;7.830;2022-11-15T20:04:18;12.80;;;9.80;;
4206;SDS011;2117;47.972;7.830;2022-11-15T20:06:44;11.00;;;8.90;;
4206;SDS011;2117;47.972;7.830;2022-11-15T20:09:10;10.53;;;8.60;;
4206;SDS011;2117;47.972;7.830;2022-11-15T20:11:37;8.73;;;7.33;;